sensor_id;sensor_type;location;lat;lon;timestamp;temperature;humidity
72650;SHT31;61467;50.674;4.618;2023-01-01T00:01:26;14.85;52.04
72650;SHT31;61467;50.674;4.618;2023-01-01T00:03:56;14.95;50.85
72650;SHT31;61467;50.674;4.618;2023-01-01T00:06:25;15.08;50.96
72650;SHT31;61467;50.674;4.618;2023-01-01T00:08:52;15.16;51.28
72650;SHT31;61467;50.674;4.618;2023-01-01T00:11:39;15.12;50.92
72650;SHT31;61467;50.674;4.618;2023-01-01T00:14:06;15.04;51.29
72650;SHT31;61467;50.674;4.618;2023-01-01T00:16:34;15.15;50.54
72650;SHT31;61467;50.674;4.618;2023-01-01T00:19:02;15.15;50.50
72650;SHT31;61467;50.674;4.618;2023-01-01T00:21:29;15.16;50.40
72650;SHT31;61467;50.674;4.618;2023-01-01T00:23:56;15.19;50.64
72650;SHT31;61467;50.674;4.618;2023-01-01T00:26:23;15.12;50.52
72650;SHT31;61467;50.674;4.618;2023-01-01T00:28:50;15.15;49.88
72650;SHT31;61467;50.674;4.618;2023-01-01T00:31:20;15.18;50.08
72650;SHT31;61467;50.674;4.618;2023-01-01T00:33:50;15.22;49.80
72650;SHT31;61467;50.674;4.618;2023-01-01T00:36:20;15.25;49.40
72650;SHT31;61467;50.674;4.618;2023-01-01T00:38:48;15.22;49.85
72650;SHT31;61467;50.674;4.618;2023-01-01T00:41:16;15.15;50.35
72650;SHT31;61467;50.674;4.618;2023-01-01T00:43:43;15.16;50.32
72650;SHT31;61467;50.674;4.618;2023-01-01T00:46:11;15.13;50.12
72650;SHT31;61467;50.674;4.618;2023-01-01T00:48:38;15.09;50.97
72650;SHT31;61467;50.674;4.618;2023-01-01T00:51:05;15.08;50.78
72650;SHT31;61467;50.674;4.618;2023-01-01T00:53:33;15.19;50.89
72650;SHT31;61467;50.674;4.618;2023-01-01T00:56:01;15.25;50.72
72650;SHT31;61467;50.674;4.618;2023-01-01T00:58:28;15.19;50.69
72650;SHT31;61467;50.674;4.618;2023-01-01T01:00:55;15.26;50.84
72650;SHT31;61467;50.674;4.618;2023-01-01T01:03:22;15.11;51.32
72650;SHT31;61467;50.674;4.618;2023-01-01T01:05:55;15.08;51.32
72650;SHT31;61467;50.674;4.618;2023-01-01T01:08:23;15.21;50.92
72650;SHT31;61467;50.674;4.618;2023-01-01T01:10:51;15.12;51.07
72650;SHT31;61467;50.674;4.618;2023-01-01T01:13:18;15.11;51.66
72650;SHT31;61467;50.674;4.618;2023-01-01T01:15:46;15.18;51.11
72650;SHT31;61467;50.674;4.618;2023-01-01T01:18:13;15.16;51.22
72650;SHT31;61467;50.674;4.618;2023-01-01T01:20:40;15.23;51.26
72650;SHT31;61467;50.674;4.618;2023-01-01T01:23:06;15.16;51.09
72650;SHT31;61467;50.674;4.618;2023-01-01T01:25:33;15.22;51.26
72650;SHT31;61467;50.674;4.618;2023-01-01T01:28:02;15.19;51.16
72650;SHT31;61467;50.674;4.618;2023-01-01T01:30:29;15.09;52.01
72650;SHT31;61467;50.674;4.618;2023-01-01T01:32:56;15.15;52.21
72650;SHT31;61467;50.674;4.618;2023-01-01T01:35:23;15.08;52.44
72650;SHT31;61467;50.674;4.618;2023-01-01T01:37:49;15.15;52.16
72650;SHT31;61467;50.674;4.618;2023-01-01T01:40:16;15.19;52.08
72650;SHT31;61467;50.674;4.618;2023-01-01T01:42:47;15.12;52.30
72650;SHT31;61467;50.674;4.618;2023-01-01T01:45:15;15.05;52.83
72650;SHT31;61467;50.674;4.618;2023-01-01T01:47:47;15.12;52.56
72650;SHT31;61467;50.674;4.618;2023-01-01T01:50:20;14.96;53.06
72650;SHT31;61467;50.674;4.618;2023-01-01T01:53:01;15.02;53.39
72650;SHT31;61467;50.674;4.618;2023-01-01T01:55:30;15.09;53.22
72650;SHT31;61467;50.674;4.618;2023-01-01T01:57:57;14.99;53.21
72650;SHT31;61467;50.674;4.618;2023-01-01T02:00:26;14.98;53.30
72650;SHT31;61467;50.674;4.618;2023-01-01T02:02:55;15.05;52.97
72650;SHT31;61467;50.674;4.618;2023-01-01T02:05:24;15.08;53.33
72650;SHT31;61467;50.674;4.618;2023-01-01T02:07:51;15.02;53.40
72650;SHT31;61467;50.674;4.618;2023-01-01T02:10:19;14.99;53.91
72650;SHT31;61467;50.674;4.618;2023-01-01T02:12:46;15.06;53.81
72650;SHT31;61467;50.674;4.618;2023-01-01T02:15:13;15.12;53.92
72650;SHT31;61467;50.674;4.618;2023-01-01T02:17:51;15.01;54.36
72650;SHT31;61467;50.674;4.618;2023-01-01T02:20:33;14.98;55.30
72650;SHT31;61467;50.674;4.618;2023-01-01T02:23:33;14.92;55.83
72650;SHT31;61467;50.674;4.618;2023-01-01T02:26:19;14.85;56.43
72650;SHT31;61467;50.674;4.618;2023-01-01T02:28:53;14.88;56.31
72650;SHT31;61467;50.674;4.618;2023-01-01T02:31:25;14.87;55.86
72650;SHT31;61467;50.674;4.618;2023-01-01T02:33:56;14.84;56.27
72650;SHT31;61467;50.674;4.618;2023-01-01T02:36:25;14.82;56.07
72650;SHT31;61467;50.674;4.618;2023-01-01T02:38:55;14.82;55.92
72650;SHT31;61467;50.674;4.618;2023-01-01T02:41:26;14.70;56.40
72650;SHT31;61467;50.674;4.618;2023-01-01T02:43:55;14.68;56.65
72650;SHT31;61467;50.674;4.618;2023-01-01T02:46:22;14.75;56.42
72650;SHT31;61467;50.674;4.618;2023-01-01T02:48:50;14.73;56.80
72650;SHT31;61467;50.674;4.618;2023-01-01T02:51:24;14.75;56.86
72650;SHT31;61467;50.674;4.618;2023-01-01T02:54:00;14.71;57.02
72650;SHT31;61467;50.674;4.618;2023-01-01T02:56:36;14.75;56.93
72650;SHT31;61467;50.674;4.618;2023-01-01T02:59:17;14.85;56.92
72650;SHT31;61467;50.674;4.618;2023-01-01T03:02:11;14.70;57.84
72650;SHT31;61467;50.674;4.618;2023-01-01T03:04:51;14.68;58.04
72650;SHT31;61467;50.674;4.618;2023-01-01T03:07:30;14.54;59.38
72650;SHT31;61467;50.674;4.618;2023-01-01T03:10:04;14.60;58.82
72650;SHT31;61467;50.674;4.618;2023-01-01T03:12:37;14.65;58.70
72650;SHT31;61467;50.674;4.618;2023-01-01T03:15:18;14.67;58.53
72650;SHT31;61467;50.674;4.618;2023-01-01T03:17:49;14.64;58.98
72650;SHT31;61467;50.674;4.618;2023-01-01T03:20:25;14.48;58.90
72650;SHT31;61467;50.674;4.618;2023-01-01T03:22:54;14.59;58.32
72650;SHT31;61467;50.674;4.618;2023-01-01T03:25:25;14.63;58.48
72650;SHT31;61467;50.674;4.618;2023-01-01T03:27:59;14.57;58.43
72650;SHT31;61467;50.674;4.618;2023-01-01T03:30:31;14.60;58.25
72650;SHT31;61467;50.674;4.618;2023-01-01T03:33:02;14.43;59.06
72650;SHT31;61467;50.674;4.618;2023-01-01T03:35:37;14.54;58.92
72650;SHT31;61467;50.674;4.618;2023-01-01T03:38:08;14.48;59.19
72650;SHT31;61467;50.674;4.618;2023-01-01T03:40:37;14.59;58.87
72650;SHT31;61467;50.674;4.618;2023-01-01T03:43:07;14.61;58.80
72650;SHT31;61467;50.674;4.618;2023-01-01T03:45:41;14.74;58.35
72650;SHT31;61467;50.674;4.618;2023-01-01T03:48:09;14.63;58.72
72650;SHT31;61467;50.674;4.618;2023-01-01T03:50:48;14.47;59.58
72650;SHT31;61467;50.674;4.618;2023-01-01T03:53:22;14.63;58.94
72650;SHT31;61467;50.674;4.618;2023-01-01T03:55:59;14.54;59.02
72650;SHT31;61467;50.674;4.618;2023-01-01T03:58:34;14.65;58.82
72650;SHT31;61467;50.674;4.618;2023-01-01T04:01:10;14.59;59.07
72650;SHT31;61467;50.674;4.618;2023-01-01T04:03:40;14.65;58.74
72650;SHT31;61467;50.674;4.618;2023-01-01T04:06:08;14.70;59.00
72650;SHT31;61467;50.674;4.618;2023-01-01T04:08:37;14.75;58.61
72650;SHT31;61467;50.674;4.618;2023-01-01T04:11:07;14.50;59.37
72650;SHT31;61467;50.674;4.618;2023-01-01T04:13:48;14.57;59.01
72650;SHT31;61467;50.674;4.618;2023-01-01T04:16:17;14.68;59.18
72650;SHT31;61467;50.674;4.618;2023-01-01T04:18:43;14.70;58.91
72650;SHT31;61467;50.674;4.618;2023-01-01T04:21:11;14.57;59.57
72650;SHT31;61467;50.674;4.618;2023-01-01T04:23:38;14.63;59.34
72650;SHT31;61467;50.674;4.618;2023-01-01T04:26:04;14.59;59.65
72650;SHT31;61467;50.674;4.618;2023-01-01T04:28:31;14.74;59.41
72650;SHT31;61467;50.674;4.618;2023-01-01T04:31:00;14.57;60.12
72650;SHT31;61467;50.674;4.618;2023-01-01T04:33:30;14.65;59.95
72650;SHT31;61467;50.674;4.618;2023-01-01T04:36:02;14.54;60.55
72650;SHT31;61467;50.674;4.618;2023-01-01T04:38:29;14.70;60.77
72650;SHT31;61467;50.674;4.618;2023-01-01T04:40:57;14.57;61.24
72650;SHT31;61467;50.674;4.618;2023-01-01T04:43:23;14.43;61.73
72650;SHT31;61467;50.674;4.618;2023-01-01T04:45:54;14.34;61.72
72650;SHT31;61467;50.674;4.618;2023-01-01T04:48:21;14.33;62.19
72650;SHT31;61467;50.674;4.618;2023-01-01T04:50:54;14.43;61.70
72650;SHT31;61467;50.674;4.618;2023-01-01T04:53:21;14.47;61.49
72650;SHT31;61467;50.674;4.618;2023-01-01T04:55:48;14.33;62.02
72650;SHT31;61467;50.674;4.618;2023-01-01T04:58:15;14.22;62.15
72650;SHT31;61467;50.674;4.618;2023-01-01T05:00:42;14.33;61.92
72650;SHT31;61467;50.674;4.618;2023-01-01T05:03:08;14.23;62.27
72650;SHT31;61467;50.674;4.618;2023-01-01T05:05:35;14.20;62.50
72650;SHT31;61467;50.674;4.618;2023-01-01T05:08:03;14.24;62.17
72650;SHT31;61467;50.674;4.618;2023-01-01T05:10:30;14.22;62.64
72650;SHT31;61467;50.674;4.618;2023-01-01T05:12:57;14.34;61.86
72650;SHT31;61467;50.674;4.618;2023-01-01T05:15:24;14.37;61.97
72650;SHT31;61467;50.674;4.618;2023-01-01T05:17:52;14.50;61.90
72650;SHT31;61467;50.674;4.618;2023-01-01T05:20:19;14.38;62.19
72650;SHT31;61467;50.674;4.618;2023-01-01T05:22:46;14.36;62.34
72650;SHT31;61467;50.674;4.618;2023-01-01T05:25:14;14.26;62.37
72650;SHT31;61467;50.674;4.618;2023-01-01T05:27:41;14.20;63.04
72650;SHT31;61467;50.674;4.618;2023-01-01T05:30:08;14.10;63.32
72650;SHT31;61467;50.674;4.618;2023-01-01T05:32:35;14.09;63.48
72650;SHT31;61467;50.674;4.618;2023-01-01T05:35:02;14.22;63.49
72650;SHT31;61467;50.674;4.618;2023-01-01T05:37:29;14.24;63.68
72650;SHT31;61467;50.674;4.618;2023-01-01T05:39:56;13.99;64.65
72650;SHT31;61467;50.674;4.618;2023-01-01T05:42:24;14.09;64.95
72650;SHT31;61467;50.674;4.618;2023-01-01T05:44:51;14.12;65.12
72650;SHT31;61467;50.674;4.618;2023-01-01T05:47:18;14.17;65.15
72650;SHT31;61467;50.674;4.618;2023-01-01T05:49:48;14.12;65.47
72650;SHT31;61467;50.674;4.618;2023-01-01T05:52:14;14.03;65.75
72650;SHT31;61467;50.674;4.618;2023-01-01T05:54:41;14.27;65.04
72650;SHT31;61467;50.674;4.618;2023-01-01T05:57:08;14.10;65.99
72650;SHT31;61467;50.674;4.618;2023-01-01T05:59:36;14.12;65.96
72650;SHT31;61467;50.674;4.618;2023-01-01T06:02:03;13.99;66.34
72650;SHT31;61467;50.674;4.618;2023-01-01T06:04:30;13.86;66.81
72650;SHT31;61467;50.674;4.618;2023-01-01T06:06:56;13.95;66.73
72650;SHT31;61467;50.674;4.618;2023-01-01T06:09:23;14.03;66.59
72650;SHT31;61467;50.674;4.618;2023-01-01T06:11:50;13.89;66.94
72650;SHT31;61467;50.674;4.618;2023-01-01T06:14:17;13.90;67.26
72650;SHT31;61467;50.674;4.618;2023-01-01T06:16:45;13.93;67.27
72650;SHT31;61467;50.674;4.618;2023-01-01T06:19:12;13.85;68.20
72650;SHT31;61467;50.674;4.618;2023-01-01T06:21:39;13.87;68.35
72650;SHT31;61467;50.674;4.618;2023-01-01T06:24:06;13.85;68.55
72650;SHT31;61467;50.674;4.618;2023-01-01T06:26:33;13.73;69.13
72650;SHT31;61467;50.674;4.618;2023-01-01T06:29:01;13.81;69.00
72650;SHT31;61467;50.674;4.618;2023-01-01T06:31:29;13.66;69.36
72650;SHT31;61467;50.674;4.618;2023-01-01T06:33:57;13.57;69.76
72650;SHT31;61467;50.674;4.618;2023-01-01T06:36:25;13.64;69.74
72650;SHT31;61467;50.674;4.618;2023-01-01T06:38:55;13.57;69.80
72650;SHT31;61467;50.674;4.618;2023-01-01T06:41:24;13.51;70.28
72650;SHT31;61467;50.674;4.618;2023-01-01T06:43:51;13.54;70.24
72650;SHT31;61467;50.674;4.618;2023-01-01T06:46:19;13.42;70.36
72650;SHT31;61467;50.674;4.618;2023-01-01T06:48:47;13.66;70.01
72650;SHT31;61467;50.674;4.618;2023-01-01T06:51:17;13.59;69.94
72650;SHT31;61467;50.674;4.618;2023-01-01T06:53:44;13.41;71.06
72650;SHT31;61467;50.674;4.618;2023-01-01T06:56:11;13.52;70.79
72650;SHT31;61467;50.674;4.618;2023-01-01T06:58:38;13.51;70.20
72650;SHT31;61467;50.674;4.618;2023-01-01T07:01:08;13.64;70.10
72650;SHT31;61467;50.674;4.618;2023-01-01T07:03:35;13.66;70.01
72650;SHT31;61467;50.674;4.618;2023-01-01T07:06:03;13.47;70.13
72650;SHT31;61467;50.674;4.618;2023-01-01T07:08:31;13.48;70.72
72650;SHT31;61467;50.674;4.618;2023-01-01T07:10:58;13.37;70.60
72650;SHT31;61467;50.674;4.618;2023-01-01T07:13:26;13.45;70.64
72650;SHT31;61467;50.674;4.618;2023-01-01T07:15:53;13.38;70.33
72650;SHT31;61467;50.674;4.618;2023-01-01T07:18:21;13.54;70.16
72650;SHT31;61467;50.674;4.618;2023-01-01T07:20:48;13.50;70.05
72650;SHT31;61467;50.674;4.618;2023-01-01T07:23:16;13.61;69.85
72650;SHT31;61467;50.674;4.618;2023-01-01T07:25:44;13.55;70.26
72650;SHT31;61467;50.674;4.618;2023-01-01T07:28:11;13.41;70.84
72650;SHT31;61467;50.674;4.618;2023-01-01T07:30:38;13.33;70.91
72650;SHT31;61467;50.674;4.618;2023-01-01T07:33:05;13.34;70.68
72650;SHT31;61467;50.674;4.618;2023-01-01T07:35:35;13.47;70.18
72650;SHT31;61467;50.674;4.618;2023-01-01T07:38:02;13.41;70.24
72650;SHT31;61467;50.674;4.618;2023-01-01T07:40:29;13.50;70.06
72650;SHT31;61467;50.674;4.618;2023-01-01T07:42:57;13.42;70.21
72650;SHT31;61467;50.674;4.618;2023-01-01T07:45:24;13.21;70.76
72650;SHT31;61467;50.674;4.618;2023-01-01T07:47:53;13.28;70.72
72650;SHT31;61467;50.674;4.618;2023-01-01T07:50:21;13.37;70.34
72650;SHT31;61467;50.674;4.618;2023-01-01T07:52:48;13.30;70.33
72650;SHT31;61467;50.674;4.618;2023-01-01T07:55:18;13.41;70.26
72650;SHT31;61467;50.674;4.618;2023-01-01T07:57:45;13.54;69.80
72650;SHT31;61467;50.674;4.618;2023-01-01T08:00:15;13.41;70.09
72650;SHT31;61467;50.674;4.618;2023-01-01T08:02:42;13.51;70.26
72650;SHT31;61467;50.674;4.618;2023-01-01T08:05:10;13.37;70.46
72650;SHT31;61467;50.674;4.618;2023-01-01T08:07:37;13.47;70.42
72650;SHT31;61467;50.674;4.618;2023-01-01T08:10:05;13.35;70.41
72650;SHT31;61467;50.674;4.618;2023-01-01T08:12:32;13.45;70.49
72650;SHT31;61467;50.674;4.618;2023-01-01T08:14:59;13.65;69.46
72650;SHT31;61467;50.674;4.618;2023-01-01T08:17:27;13.59;69.60
72650;SHT31;61467;50.674;4.618;2023-01-01T08:19:54;13.41;70.18
72650;SHT31;61467;50.674;4.618;2023-01-01T08:22:21;13.34;70.31
72650;SHT31;61467;50.674;4.618;2023-01-01T08:24:48;13.61;69.46
72650;SHT31;61467;50.674;4.618;2023-01-01T08:27:15;13.55;69.49
72650;SHT31;61467;50.674;4.618;2023-01-01T08:29:42;13.59;69.14
72650;SHT31;61467;50.674;4.618;2023-01-01T08:32:09;13.66;69.05
72650;SHT31;61467;50.674;4.618;2023-01-01T08:34:38;13.48;69.76
72650;SHT31;61467;50.674;4.618;2023-01-01T08:37:05;13.51;69.83
72650;SHT31;61467;50.674;4.618;2023-01-01T08:39:32;13.45;69.61
72650;SHT31;61467;50.674;4.618;2023-01-01T08:41:58;13.48;69.65
72650;SHT31;61467;50.674;4.618;2023-01-01T08:44:25;13.59;69.39
72650;SHT31;61467;50.674;4.618;2023-01-01T08:46:52;13.61;69.10
72650;SHT31;61467;50.674;4.618;2023-01-01T08:49:19;13.58;69.04
72650;SHT31;61467;50.674;4.618;2023-01-01T08:51:47;13.65;68.77
72650;SHT31;61467;50.674;4.618;2023-01-01T08:54:14;13.64;68.52
72650;SHT31;61467;50.674;4.618;2023-01-01T08:56:41;13.64;68.68
72650;SHT31;61467;50.674;4.618;2023-01-01T08:59:08;13.50;68.99
72650;SHT31;61467;50.674;4.618;2023-01-01T09:01:34;13.48;68.94
72650;SHT31;61467;50.674;4.618;2023-01-01T09:04:01;13.59;68.53
72650;SHT31;61467;50.674;4.618;2023-01-01T09:06:28;13.62;68.80
72650;SHT31;61467;50.674;4.618;2023-01-01T09:08:56;13.76;68.19
72650;SHT31;61467;50.674;4.618;2023-01-01T09:11:25;13.69;68.45
72650;SHT31;61467;50.674;4.618;2023-01-01T09:13:52;13.73;68.05
72650;SHT31;61467;50.674;4.618;2023-01-01T09:16:20;13.71;68.33
72650;SHT31;61467;50.674;4.618;2023-01-01T09:18:47;13.69;68.36
72650;SHT31;61467;50.674;4.618;2023-01-01T09:21:14;13.87;67.69
72650;SHT31;61467;50.674;4.618;2023-01-01T09:23:41;13.86;67.83
72650;SHT31;61467;50.674;4.618;2023-01-01T09:26:09;13.89;67.75
72650;SHT31;61467;50.674;4.618;2023-01-01T09:28:37;13.73;68.41
72650;SHT31;61467;50.674;4.618;2023-01-01T09:31:04;13.76;68.24
72650;SHT31;61467;50.674;4.618;2023-01-01T09:33:31;13.75;68.04
72650;SHT31;61467;50.674;4.618;2023-01-01T09:36:11;13.86;67.82
72650;SHT31;61467;50.674;4.618;2023-01-01T09:38:39;13.83;67.77
72650;SHT31;61467;50.674;4.618;2023-01-01T09:41:13;13.85;68.16
72650;SHT31;61467;50.674;4.618;2023-01-01T09:43:53;13.95;67.70
72650;SHT31;61467;50.674;4.618;2023-01-01T09:46:22;13.89;67.82
72650;SHT31;61467;50.674;4.618;2023-01-01T09:48:54;13.79;67.86
72650;SHT31;61467;50.674;4.618;2023-01-01T09:51:23;13.89;67.72
72650;SHT31;61467;50.674;4.618;2023-01-01T09:53:55;13.98;67.37
72650;SHT31;61467;50.674;4.618;2023-01-01T09:56:26;13.89;67.74
72650;SHT31;61467;50.674;4.618;2023-01-01T09:58:55;13.93;67.73
72650;SHT31;61467;50.674;4.618;2023-01-01T10:01:33;13.81;67.94
72650;SHT31;61467;50.674;4.618;2023-01-01T10:04:11;13.83;67.96
72650;SHT31;61467;50.674;4.618;2023-01-01T10:06:49;14.14;67.20
72650;SHT31;61467;50.674;4.618;2023-01-01T10:09:22;13.90;67.49
72650;SHT31;61467;50.674;4.618;2023-01-01T10:11:55;13.85;68.13
72650;SHT31;61467;50.674;4.618;2023-01-01T10:14:31;14.02;67.55
72650;SHT31;61467;50.674;4.618;2023-01-01T10:17:01;14.06;67.14
72650;SHT31;61467;50.674;4.618;2023-01-01T10:19:31;14.06;67.20
72650;SHT31;61467;50.674;4.618;2023-01-01T10:22:02;14.22;66.84
72650;SHT31;61467;50.674;4.618;2023-01-01T10:24:36;14.09;67.40
72650;SHT31;61467;50.674;4.618;2023-01-01T10:27:06;14.17;67.29
72650;SHT31;61467;50.674;4.618;2023-01-01T10:29:39;14.24;66.58
72650;SHT31;61467;50.674;4.618;2023-01-01T10:32:17;14.20;66.51
72650;SHT31;61467;50.674;4.618;2023-01-01T10:34:45;14.47;66.14
72650;SHT31;61467;50.674;4.618;2023-01-01T10:37:12;14.29;66.37
72650;SHT31;61467;50.674;4.618;2023-01-01T10:39:41;14.22;66.91
72650;SHT31;61467;50.674;4.618;2023-01-01T10:42:11;14.48;65.87
72650;SHT31;61467;50.674;4.618;2023-01-01T10:44:38;14.38;66.29
72650;SHT31;61467;50.674;4.618;2023-01-01T10:47:27;14.40;66.06
72650;SHT31;61467;50.674;4.618;2023-01-01T10:49:57;14.47;65.79
72650;SHT31;61467;50.674;4.618;2023-01-01T10:52:29;14.29;66.21
72650;SHT31;61467;50.674;4.618;2023-01-01T10:54:58;14.40;65.98
72650;SHT31;61467;50.674;4.618;2023-01-01T10:57:36;14.53;65.42
72650;SHT31;61467;50.674;4.618;2023-01-01T11:00:20;14.48;66.14
72650;SHT31;61467;50.674;4.618;2023-01-01T11:03:08;14.71;65.17
72650;SHT31;61467;50.674;4.618;2023-01-01T11:05:37;14.65;65.07
72650;SHT31;61467;50.674;4.618;2023-01-01T11:08:15;14.38;65.76
72650;SHT31;61467;50.674;4.618;2023-01-01T11:10:49;14.43;65.78
72650;SHT31;61467;50.674;4.618;2023-01-01T11:13:19;14.50;65.58
72650;SHT31;61467;50.674;4.618;2023-01-01T11:15:46;14.37;66.34
72650;SHT31;61467;50.674;4.618;2023-01-01T11:18:15;14.29;66.19
72650;SHT31;61467;50.674;4.618;2023-01-01T11:20:42;14.45;65.50
72650;SHT31;61467;50.674;4.618;2023-01-01T11:23:27;14.29;66.33
72650;SHT31;61467;50.674;4.618;2023-01-01T11:26:03;14.44;65.88
72650;SHT31;61467;50.674;4.618;2023-01-01T11:28:32;14.54;65.75
72650;SHT31;61467;50.674;4.618;2023-01-01T11:31:09;14.36;66.06
72650;SHT31;61467;50.674;4.618;2023-01-01T11:33:42;14.29;66.36
72650;SHT31;61467;50.674;4.618;2023-01-01T11:36:10;14.36;66.25
72650;SHT31;61467;50.674;4.618;2023-01-01T11:38:38;14.33;66.31
72650;SHT31;61467;50.674;4.618;2023-01-01T11:41:05;14.29;66.01
72650;SHT31;61467;50.674;4.618;2023-01-01T11:43:38;14.29;66.17
72650;SHT31;61467;50.674;4.618;2023-01-01T11:46:10;14.41;65.63
72650;SHT31;61467;50.674;4.618;2023-01-01T11:48:42;14.27;65.97
72650;SHT31;61467;50.674;4.618;2023-01-01T11:51:27;14.33;66.09
72650;SHT31;61467;50.674;4.618;2023-01-01T11:54:08;14.47;65.22
72650;SHT31;61467;50.674;4.618;2023-01-01T11:56:36;14.48;65.66
72650;SHT31;61467;50.674;4.618;2023-01-01T11:59:11;14.48;65.41
72650;SHT31;61467;50.674;4.618;2023-01-01T12:01:43;14.34;66.03
72650;SHT31;61467;50.674;4.618;2023-01-01T12:04:16;14.30;65.84
72650;SHT31;61467;50.674;4.618;2023-01-01T12:06:49;14.33;66.03
72650;SHT31;61467;50.674;4.618;2023-01-01T12:09:22;14.26;66.40
72650;SHT31;61467;50.674;4.618;2023-01-01T12:11:51;14.48;65.95
72650;SHT31;61467;50.674;4.618;2023-01-01T12:14:27;14.51;65.85
72650;SHT31;61467;50.674;4.618;2023-01-01T12:16:59;14.45;66.23
72650;SHT31;61467;50.674;4.618;2023-01-01T12:19:30;14.40;66.32
72650;SHT31;61467;50.674;4.618;2023-01-01T12:21:59;14.54;66.24
72650;SHT31;61467;50.674;4.618;2023-01-01T12:24:33;14.47;66.66
72650;SHT31;61467;50.674;4.618;2023-01-01T12:27:13;14.32;67.16
72650;SHT31;61467;50.674;4.618;2023-01-01T12:30:05;14.54;66.18
72650;SHT31;61467;50.674;4.618;2023-01-01T12:36:05;14.36;66.70
72650;SHT31;61467;50.674;4.618;2023-01-01T12:41:45;14.36;67.08
72650;SHT31;61467;50.674;4.618;2023-01-01T12:44:20;14.29;67.34
72650;SHT31;61467;50.674;4.618;2023-01-01T12:46:58;14.13;67.45
72650;SHT31;61467;50.674;4.618;2023-01-01T12:49:49;14.12;67.18
72650;SHT31;61467;50.674;4.618;2023-01-01T12:52:27;14.24;66.94
72650;SHT31;61467;50.674;4.618;2023-01-01T12:55:24;14.32;66.65
72650;SHT31;61467;50.674;4.618;2023-01-01T12:57:58;14.37;66.28
72650;SHT31;61467;50.674;4.618;2023-01-01T13:00:27;14.50;66.20
72650;SHT31;61467;50.674;4.618;2023-01-01T13:03:00;14.38;66.56
72650;SHT31;61467;50.674;4.618;2023-01-01T13:05:35;14.44;66.29
72650;SHT31;61467;50.674;4.618;2023-01-01T13:08:04;14.51;65.61
72650;SHT31;61467;50.674;4.618;2023-01-01T13:10:33;14.37;65.98
72650;SHT31;61467;50.674;4.618;2023-01-01T13:13:00;14.41;65.79
72650;SHT31;61467;50.674;4.618;2023-01-01T13:15:44;14.50;65.28
72650;SHT31;61467;50.674;4.618;2023-01-01T13:18:25;14.33;66.06
72650;SHT31;61467;50.674;4.618;2023-01-01T13:20:59;14.53;65.64
72650;SHT31;61467;50.674;4.618;2023-01-01T13:23:48;14.54;65.50
72650;SHT31;61467;50.674;4.618;2023-01-01T13:26:38;14.38;66.02
72650;SHT31;61467;50.674;4.618;2023-01-01T13:32:10;14.32;66.61
72650;SHT31;61467;50.674;4.618;2023-01-01T13:34:45;14.33;66.62
72650;SHT31;61467;50.674;4.618;2023-01-01T13:37:26;14.32;66.96
72650;SHT31;61467;50.674;4.618;2023-01-01T13:39:55;14.43;66.63
72650;SHT31;61467;50.674;4.618;2023-01-01T13:42:43;14.29;67.07
72650;SHT31;61467;50.674;4.618;2023-01-01T13:45:21;14.30;67.28
72650;SHT31;61467;50.674;4.618;2023-01-01T13:48:13;14.41;67.16
72650;SHT31;61467;50.674;4.618;2023-01-01T13:50:50;14.19;67.98
72650;SHT31;61467;50.674;4.618;2023-01-01T13:53:40;14.36;66.83
72650;SHT31;61467;50.674;4.618;2023-01-01T13:56:21;14.22;67.75
72650;SHT31;61467;50.674;4.618;2023-01-01T13:59:23;14.19;67.12
72650;SHT31;61467;50.674;4.618;2023-01-01T14:02:00;14.20;67.40
72650;SHT31;61467;50.674;4.618;2023-01-01T14:04:37;14.09;67.71
72650;SHT31;61467;50.674;4.618;2023-01-01T14:07:18;14.01;68.21
72650;SHT31;61467;50.674;4.618;2023-01-01T14:09:46;14.08;67.99
72650;SHT31;61467;50.674;4.618;2023-01-01T14:12:16;13.85;68.78
72650;SHT31;61467;50.674;4.618;2023-01-01T14:14:43;14.03;68.39
72650;SHT31;61467;50.674;4.618;2023-01-01T14:17:12;14.03;68.97
72650;SHT31;61467;50.674;4.618;2023-01-01T14:19:40;13.95;70.12
72650;SHT31;61467;50.674;4.618;2023-01-01T14:22:09;14.05;69.06
72650;SHT31;61467;50.674;4.618;2023-01-01T14:24:40;14.06;69.48
72650;SHT31;61467;50.674;4.618;2023-01-01T14:27:07;14.10;69.30
72650;SHT31;61467;50.674;4.618;2023-01-01T14:29:35;14.17;69.39
72650;SHT31;61467;50.674;4.618;2023-01-01T14:32:12;14.14;69.64
72650;SHT31;61467;50.674;4.618;2023-01-01T14:34:39;13.89;70.42
72650;SHT31;61467;50.674;4.618;2023-01-01T14:37:19;13.82;70.48
72650;SHT31;61467;50.674;4.618;2023-01-01T14:40:10;13.76;70.74
72650;SHT31;61467;50.674;4.618;2023-01-01T14:42:40;13.69;71.44
72650;SHT31;61467;50.674;4.618;2023-01-01T14:45:13;13.52;72.36
72650;SHT31;61467;50.674;4.618;2023-01-01T14:47:46;13.59;72.45
72650;SHT31;61467;50.674;4.618;2023-01-01T14:50:20;13.61;72.66
72650;SHT31;61467;50.674;4.618;2023-01-01T14:52:53;13.54;72.68
72650;SHT31;61467;50.674;4.618;2023-01-01T14:55:21;13.52;72.92
72650;SHT31;61467;50.674;4.618;2023-01-01T14:57:54;13.38;73.81
72650;SHT31;61467;50.674;4.618;2023-01-01T15:00:24;13.54;73.62
72650;SHT31;61467;50.674;4.618;2023-01-01T15:02:52;13.66;73.06
72650;SHT31;61467;50.674;4.618;2023-01-01T15:05:30;13.44;73.73
72650;SHT31;61467;50.674;4.618;2023-01-01T15:07:59;13.18;74.90
72650;SHT31;61467;50.674;4.618;2023-01-01T15:10:27;13.48;73.88
72650;SHT31;61467;50.674;4.618;2023-01-01T15:12:55;13.37;74.63
72650;SHT31;61467;50.674;4.618;2023-01-01T15:15:41;13.45;74.32
72650;SHT31;61467;50.674;4.618;2023-01-01T15:18:37;13.48;74.09
72650;SHT31;61467;50.674;4.618;2023-01-01T15:21:08;13.47;74.27
72650;SHT31;61467;50.674;4.618;2023-01-01T15:23:47;13.50;74.28
72650;SHT31;61467;50.674;4.618;2023-01-01T15:26:20;13.51;73.94
72650;SHT31;61467;50.674;4.618;2023-01-01T15:28:50;13.42;74.13
72650;SHT31;61467;50.674;4.618;2023-01-01T15:31:17;13.44;74.26
72650;SHT31;61467;50.674;4.618;2023-01-01T15:33:45;13.37;74.75
72650;SHT31;61467;50.674;4.618;2023-01-01T15:36:13;13.31;74.69
72650;SHT31;61467;50.674;4.618;2023-01-01T15:38:44;13.28;74.76
72650;SHT31;61467;50.674;4.618;2023-01-01T15:41:34;13.30;74.67
72650;SHT31;61467;50.674;4.618;2023-01-01T15:44:07;13.33;74.59
72650;SHT31;61467;50.674;4.618;2023-01-01T15:46:34;13.37;74.58
72650;SHT31;61467;50.674;4.618;2023-01-01T15:49:01;13.38;74.54
72650;SHT31;61467;50.674;4.618;2023-01-01T15:51:28;13.41;74.80
72650;SHT31;61467;50.674;4.618;2023-01-01T15:53:58;13.28;74.70
72650;SHT31;61467;50.674;4.618;2023-01-01T15:56:28;13.31;74.95
72650;SHT31;61467;50.674;4.618;2023-01-01T15:58:57;13.25;75.40
72650;SHT31;61467;50.674;4.618;2023-01-01T16:01:27;13.20;75.56
72650;SHT31;61467;50.674;4.618;2023-01-01T16:04:01;13.07;76.39